Main page
METAR-TAF:

METAR-TAF

Airports :

Ben Gurion Airport

Tel Aviv / Ben Gurion, Israel

latitude: 32-00N, longitude: 034-54E, elevation: 40 m

Current weather observation

The report was made 41 minutes ago, at 21:50 UTC
Wind 4 kt from the North/Northeast
Temperature 13°C
Humidity 88%
Pressure 1019 hPa
Visibility 10 km or more
no clouds below 1500 m and no cumulonimbus

METAR: LLBG 182150Z 03004KT CAVOK 13/11 Q1019 NOSIG

Time: 00:31 (22:31 UTC)

Forecast

The report was made 5 hours and 31 minutes ago, at 17:00 UTC
Forecast valid from 18 at 18 UTC to 19 at 18 UTC
Wind 3 kt from variable directions
Visibility 10 km or more
no clouds below 1500 m and no cumulonimbus
Probability 30%
from 19 at 03 UTC to 19 at 06 UTC
Visibility: 5000 m
Shallow fog
Becoming
from 19 at 07 UTC to 19 at 09 UTC
Wind 10 kt from the North/Northwest
Becoming
from 19 at 15 UTC to 19 at 17 UTC
Wind 4 kt from the North

TAF: LLBG 181700Z 1818/1918 VRB03KT CAVOK PROB30 1903/1906 5000 MIFG BECMG 1907/1909 34010KT BECMG 1915/1917 36004KT TX24/1912Z TN10/1904Z

Weather observations and forecasts of more than 4000 airports (METAR and TAF reports).

The available stations are represented by yellow and red dots on the map.

Hover mouse over dot to see the name of the station.

Then click to see weather observations and forecasts.

To change the map : click on the green buttons with a black cross to zoom in, on the green button with a dash to zoom out, or on the green arrows for adjacent maps.


METAR-TAF: